sensor_id;sensor_type;location;lat;lon;timestamp;temperature;humidity
75357;HTU21D;63946;51.986;5.930;2023-12-20T00:00:25;7.64;80.75
75357;HTU21D;63946;51.986;5.930;2023-12-20T00:03:28;7.64;80.62
75357;HTU21D;63946;51.986;5.930;2023-12-20T00:05:59;7.62;80.62
75357;HTU21D;63946;51.986;5.930;2023-12-20T00:08:31;7.60;80.65
75357;HTU21D;63946;51.986;5.930;2023-12-20T00:11:03;7.58;80.65
75357;HTU21D;63946;51.986;5.930;2023-12-20T00:13:32;7.56;80.65
75357;HTU21D;63946;51.986;5.930;2023-12-20T00:16:01;7.53;80.45
75357;HTU21D;63946;51.986;5.930;2023-12-20T00:18:40;7.48;80.57
75357;HTU21D;63946;51.986;5.930;2023-12-20T00:21:09;7.48;80.57
75357;HTU21D;63946;51.986;5.930;2023-12-20T00:23:39;7.48;80.61
75357;HTU21D;63946;51.986;5.930;2023-12-20T00:26:12;7.53;80.56
75357;HTU21D;63946;51.986;5.930;2023-12-20T00:28:44;7.57;80.49
75357;HTU21D;63946;51.986;5.930;2023-12-20T00:31:15;7.59;80.42
75357;HTU21D;63946;51.986;5.930;2023-12-20T00:33:44;7.55;80.44
75357;HTU21D;63946;51.986;5.930;2023-12-20T00:36:16;7.50;80.52
75357;HTU21D;63946;51.986;5.930;2023-12-20T00:38:45;7.47;80.57
75357;HTU21D;63946;51.986;5.930;2023-12-20T00:41:20;7.44;80.62
75357;HTU21D;63946;51.986;5.930;2023-12-20T00:43:52;7.42;80.64
75357;HTU21D;63946;51.986;5.930;2023-12-20T00:46:28;7.43;80.64
75357;HTU21D;63946;51.986;5.930;2023-12-20T00:48:58;7.38;80.62
75357;HTU21D;63946;51.986;5.930;2023-12-20T00:51:45;7.34;80.60
75357;HTU21D;63946;51.986;5.930;2023-12-20T00:54:34;7.31;80.63
75357;HTU21D;63946;51.986;5.930;2023-12-20T00:57:05;7.27;80.59
75357;HTU21D;63946;51.986;5.930;2023-12-20T00:59:45;7.24;80.67
75357;HTU21D;63946;51.986;5.930;2023-12-20T01:02:32;7.24;80.64
75357;HTU21D;63946;51.986;5.930;2023-12-20T01:05:03;7.23;80.61
75357;HTU21D;63946;51.986;5.930;2023-12-20T01:07:33;7.20;80.61
75357;HTU21D;63946;51.986;5.930;2023-12-20T01:10:02;7.19;80.67
75357;HTU21D;63946;51.986;5.930;2023-12-20T01:12:35;7.19;80.56
75357;HTU21D;63946;51.986;5.930;2023-12-20T01:15:04;7.20;80.56
75357;HTU21D;63946;51.986;5.930;2023-12-20T01:17:34;7.19;80.61
75357;HTU21D;63946;51.986;5.930;2023-12-20T01:20:03;7.17;80.56
75357;HTU21D;63946;51.986;5.930;2023-12-20T01:22:32;7.15;80.56
75357;HTU21D;63946;51.986;5.930;2023-12-20T01:25:07;7.11;80.67
75357;HTU21D;63946;51.986;5.930;2023-12-20T01:27:36;7.14;80.69
75357;HTU21D;63946;51.986;5.930;2023-12-20T01:30:06;7.14;80.65
75357;HTU21D;63946;51.986;5.930;2023-12-20T01:32:35;7.11;80.66
75357;HTU21D;63946;51.986;5.930;2023-12-20T01:35:07;7.10;80.69
75357;HTU21D;63946;51.986;5.930;2023-12-20T01:37:38;7.08;80.71
75357;HTU21D;63946;51.986;5.930;2023-12-20T01:40:10;7.04;80.66
75357;HTU21D;63946;51.986;5.930;2023-12-20T01:42:39;7.02;80.81
75357;HTU21D;63946;51.986;5.930;2023-12-20T01:45:10;7.00;80.82
75357;HTU21D;63946;51.986;5.930;2023-12-20T01:47:39;6.98;80.85
75357;HTU21D;63946;51.986;5.930;2023-12-20T01:50:14;6.98;80.83
75357;HTU21D;63946;51.986;5.930;2023-12-20T01:53:07;6.99;80.75
75357;HTU21D;63946;51.986;5.930;2023-12-20T01:55:40;6.96;80.72
75357;HTU21D;63946;51.986;5.930;2023-12-20T01:58:13;6.97;80.72
75357;HTU21D;63946;51.986;5.930;2023-12-20T02:00:54;6.95;80.73
75357;HTU21D;63946;51.986;5.930;2023-12-20T02:03:23;6.93;80.68
75357;HTU21D;63946;51.986;5.930;2023-12-20T02:05:53;6.96;80.67
75357;HTU21D;63946;51.986;5.930;2023-12-20T02:08:33;6.99;80.56
75357;HTU21D;63946;51.986;5.930;2023-12-20T02:11:05;6.98;80.52
75357;HTU21D;63946;51.986;5.930;2023-12-20T02:13:42;7.00;80.48
75357;HTU21D;63946;51.986;5.930;2023-12-20T02:16:13;7.00;80.39
75357;HTU21D;63946;51.986;5.930;2023-12-20T02:18:43;6.99;80.38
75357;HTU21D;63946;51.986;5.930;2023-12-20T02:21:12;6.97;80.50
75357;HTU21D;63946;51.986;5.930;2023-12-20T02:23:41;6.98;80.43
75357;HTU21D;63946;51.986;5.930;2023-12-20T02:26:10;6.97;80.36
75357;HTU21D;63946;51.986;5.930;2023-12-20T02:28:40;6.96;80.41
75357;HTU21D;63946;51.986;5.930;2023-12-20T02:31:09;6.97;80.47
75357;HTU21D;63946;51.986;5.930;2023-12-20T02:33:46;7.01;80.40
75357;HTU21D;63946;51.986;5.930;2023-12-20T02:36:15;7.05;80.32
75357;HTU21D;63946;51.986;5.930;2023-12-20T02:38:44;7.04;80.17
75357;HTU21D;63946;51.986;5.930;2023-12-20T02:41:16;7.05;80.28
75357;HTU21D;63946;51.986;5.930;2023-12-20T02:44:10;7.09;80.18
75357;HTU21D;63946;51.986;5.930;2023-12-20T02:46:42;7.10;80.21
75357;HTU21D;63946;51.986;5.930;2023-12-20T02:49:21;7.11;80.14
75357;HTU21D;63946;51.986;5.930;2023-12-20T02:51:50;7.11;80.09
75357;HTU21D;63946;51.986;5.930;2023-12-20T02:54:19;7.13;80.06
75357;HTU21D;63946;51.986;5.930;2023-12-20T02:56:49;7.15;80.01
75357;HTU21D;63946;51.986;5.930;2023-12-20T02:59:26;7.16;80.02
75357;HTU21D;63946;51.986;5.930;2023-12-20T03:01:59;7.19;80.02
75357;HTU21D;63946;51.986;5.930;2023-12-20T03:04:32;7.22;79.98
75357;HTU21D;63946;51.986;5.930;2023-12-20T03:07:01;7.24;79.94
75357;HTU21D;63946;51.986;5.930;2023-12-20T03:09:33;7.24;79.84
75357;HTU21D;63946;51.986;5.930;2023-12-20T03:12:02;7.23;79.91
75357;HTU21D;63946;51.986;5.930;2023-12-20T03:14:34;7.23;79.91
75357;HTU21D;63946;51.986;5.930;2023-12-20T03:17:03;7.23;79.92
75357;HTU21D;63946;51.986;5.930;2023-12-20T03:19:32;7.19;80.00
75357;HTU21D;63946;51.986;5.930;2023-12-20T03:22:17;7.17;80.00
75357;HTU21D;63946;51.986;5.930;2023-12-20T03:24:49;7.15;80.08
75357;HTU21D;63946;51.986;5.930;2023-12-20T03:27:30;7.13;80.15
75357;HTU21D;63946;51.986;5.930;2023-12-20T03:29:59;7.13;80.14
75357;HTU21D;63946;51.986;5.930;2023-12-20T03:32:33;7.14;80.11
75357;HTU21D;63946;51.986;5.930;2023-12-20T03:35:04;7.11;80.16
75357;HTU21D;63946;51.986;5.930;2023-12-20T03:37:33;7.09;80.14
75357;HTU21D;63946;51.986;5.930;2023-12-20T03:40:03;7.07;80.20
75357;HTU21D;63946;51.986;5.930;2023-12-20T03:42:32;7.07;80.22
75357;HTU21D;63946;51.986;5.930;2023-12-20T03:45:01;7.10;80.14
75357;HTU21D;63946;51.986;5.930;2023-12-20T03:47:33;7.09;80.10
75357;HTU21D;63946;51.986;5.930;2023-12-20T03:50:02;7.08;80.08
75357;HTU21D;63946;51.986;5.930;2023-12-20T03:52:34;7.10;80.07
75357;HTU21D;63946;51.986;5.930;2023-12-20T03:55:13;7.07;80.05
75357;HTU21D;63946;51.986;5.930;2023-12-20T03:57:47;7.05;80.09
75357;HTU21D;63946;51.986;5.930;2023-12-20T04:00:16;7.07;80.01
75357;HTU21D;63946;51.986;5.930;2023-12-20T04:02:46;7.04;80.09
75357;HTU21D;63946;51.986;5.930;2023-12-20T04:05:25;7.04;80.16
75357;HTU21D;63946;51.986;5.930;2023-12-20T04:07:54;7.07;80.11
75357;HTU21D;63946;51.986;5.930;2023-12-20T04:10:30;7.09;80.08
75357;HTU21D;63946;51.986;5.930;2023-12-20T04:13:00;7.07;79.98
75357;HTU21D;63946;51.986;5.930;2023-12-20T04:15:29;7.04;80.10
75357;HTU21D;63946;51.986;5.930;2023-12-20T04:17:58;7.07;80.20
75357;HTU21D;63946;51.986;5.930;2023-12-20T04:20:37;7.12;80.09
75357;HTU21D;63946;51.986;5.930;2023-12-20T04:23:06;7.14;79.99
75357;HTU21D;63946;51.986;5.930;2023-12-20T04:25:37;7.14;80.01
75357;HTU21D;63946;51.986;5.930;2023-12-20T04:28:11;7.14;80.03
75357;HTU21D;63946;51.986;5.930;2023-12-20T04:30:43;7.13;80.07
75357;HTU21D;63946;51.986;5.930;2023-12-20T04:33:14;7.12;80.02
75357;HTU21D;63946;51.986;5.930;2023-12-20T04:35:43;7.13;80.04
75357;HTU21D;63946;51.986;5.930;2023-12-20T04:38:25;7.16;79.99
75357;HTU21D;63946;51.986;5.930;2023-12-20T04:41:00;7.17;79.95
75357;HTU21D;63946;51.986;5.930;2023-12-20T04:43:29;7.22;79.89
75357;HTU21D;63946;51.986;5.930;2023-12-20T04:46:19;7.23;79.81
75357;HTU21D;63946;51.986;5.930;2023-12-20T04:49:04;7.23;79.81
75357;HTU21D;63946;51.986;5.930;2023-12-20T04:51:34;7.24;79.81
75357;HTU21D;63946;51.986;5.930;2023-12-20T04:54:24;7.27;79.66
75357;HTU21D;63946;51.986;5.930;2023-12-20T04:56:53;7.29;79.74
75357;HTU21D;63946;51.986;5.930;2023-12-20T04:59:22;7.33;79.72
75357;HTU21D;63946;51.986;5.930;2023-12-20T05:01:51;7.37;79.62
75357;HTU21D;63946;51.986;5.930;2023-12-20T05:04:20;7.39;79.60
75357;HTU21D;63946;51.986;5.930;2023-12-20T05:06:50;7.41;79.60
75357;HTU21D;63946;51.986;5.930;2023-12-20T05:09:19;7.41;79.58
75357;HTU21D;63946;51.986;5.930;2023-12-20T05:11:50;7.44;79.55
75357;HTU21D;63946;51.986;5.930;2023-12-20T05:14:27;7.46;79.48
75357;HTU21D;63946;51.986;5.930;2023-12-20T05:16:56;7.47;79.54
75357;HTU21D;63946;51.986;5.930;2023-12-20T05:19:25;7.49;79.49
75357;HTU21D;63946;51.986;5.930;2023-12-20T05:22:06;7.52;79.50
75357;HTU21D;63946;51.986;5.930;2023-12-20T05:24:35;7.54;79.40
75357;HTU21D;63946;51.986;5.930;2023-12-20T05:27:05;7.54;79.33
75357;HTU21D;63946;51.986;5.930;2023-12-20T05:29:34;7.56;79.30
75357;HTU21D;63946;51.986;5.930;2023-12-20T05:32:03;7.60;79.22
75357;HTU21D;63946;51.986;5.930;2023-12-20T05:34:35;7.62;79.15
75357;HTU21D;63946;51.986;5.930;2023-12-20T05:37:04;7.64;79.08
75357;HTU21D;63946;51.986;5.930;2023-12-20T05:39:37;7.67;79.03
75357;HTU21D;63946;51.986;5.930;2023-12-20T05:42:20;7.69;79.03
75357;HTU21D;63946;51.986;5.930;2023-12-20T05:44:56;7.70;79.07
75357;HTU21D;63946;51.986;5.930;2023-12-20T05:47:33;7.73;79.06
75357;HTU21D;63946;51.986;5.930;2023-12-20T05:50:11;7.77;79.04
75357;HTU21D;63946;51.986;5.930;2023-12-20T05:52:43;7.79;79.00
75357;HTU21D;63946;51.986;5.930;2023-12-20T05:55:14;7.82;78.92
75357;HTU21D;63946;51.986;5.930;2023-12-20T05:57:56;7.82;78.83
75357;HTU21D;63946;51.986;5.930;2023-12-20T06:00:25;7.82;78.85
75357;HTU21D;63946;51.986;5.930;2023-12-20T06:02:54;7.83;78.80
75357;HTU21D;63946;51.986;5.930;2023-12-20T06:05:25;7.85;78.83
75357;HTU21D;63946;51.986;5.930;2023-12-20T06:07:54;7.86;78.77
75357;HTU21D;63946;51.986;5.930;2023-12-20T06:10:27;7.88;78.66
75357;HTU21D;63946;51.986;5.930;2023-12-20T06:13:14;7.89;78.59
75357;HTU21D;63946;51.986;5.930;2023-12-20T06:15:43;7.89;78.59
75357;HTU21D;63946;51.986;5.930;2023-12-20T06:18:15;7.87;78.59
75357;HTU21D;63946;51.986;5.930;2023-12-20T06:20:57;7.90;78.55
75357;HTU21D;63946;51.986;5.930;2023-12-20T06:23:28;7.89;78.49
75357;HTU21D;63946;51.986;5.930;2023-12-20T06:26:02;7.92;78.47
75357;HTU21D;63946;51.986;5.930;2023-12-20T06:28:41;7.92;78.47
75357;HTU21D;63946;51.986;5.930;2023-12-20T06:31:14;7.94;78.34
75357;HTU21D;63946;51.986;5.930;2023-12-20T06:33:43;7.96;78.36
75357;HTU21D;63946;51.986;5.930;2023-12-20T06:36:24;7.98;78.35
75357;HTU21D;63946;51.986;5.930;2023-12-20T06:38:53;7.97;78.32
75357;HTU21D;63946;51.986;5.930;2023-12-20T06:41:33;7.98;78.24
75357;HTU21D;63946;51.986;5.930;2023-12-20T06:44:02;7.98;78.24
75357;HTU21D;63946;51.986;5.930;2023-12-20T06:46:34;7.96;78.24
75357;HTU21D;63946;51.986;5.930;2023-12-20T06:49:03;7.94;78.24
75357;HTU21D;63946;51.986;5.930;2023-12-20T06:51:35;7.93;78.08
75357;HTU21D;63946;51.986;5.930;2023-12-20T06:54:07;7.94;78.06
75357;HTU21D;63946;51.986;5.930;2023-12-20T06:56:36;7.92;77.98
75357;HTU21D;63946;51.986;5.930;2023-12-20T06:59:10;7.91;77.95
75357;HTU21D;63946;51.986;5.930;2023-12-20T07:01:48;7.94;77.89
75357;HTU21D;63946;51.986;5.930;2023-12-20T07:04:17;7.94;77.84
75357;HTU21D;63946;51.986;5.930;2023-12-20T07:06:48;7.96;77.81
75357;HTU21D;63946;51.986;5.930;2023-12-20T07:09:25;7.98;77.84
75357;HTU21D;63946;51.986;5.930;2023-12-20T07:11:57;7.98;77.79
75357;HTU21D;63946;51.986;5.930;2023-12-20T07:14:44;8.00;77.60
75357;HTU21D;63946;51.986;5.930;2023-12-20T07:17:17;7.99;77.65
75357;HTU21D;63946;51.986;5.930;2023-12-20T07:19:47;7.97;77.57
75357;HTU21D;63946;51.986;5.930;2023-12-20T07:22:21;7.97;77.63
75357;HTU21D;63946;51.986;5.930;2023-12-20T07:24:50;7.97;77.63
75357;HTU21D;63946;51.986;5.930;2023-12-20T07:27:20;7.99;77.63
75357;HTU21D;63946;51.986;5.930;2023-12-20T07:30:08;8.01;77.56
75357;HTU21D;63946;51.986;5.930;2023-12-20T07:32:48;7.99;77.44
75357;HTU21D;63946;51.986;5.930;2023-12-20T07:35:27;8.01;77.52
75357;HTU21D;63946;51.986;5.930;2023-12-20T07:37:56;8.00;77.60
75357;HTU21D;63946;51.986;5.930;2023-12-20T07:40:34;8.03;77.60
75357;HTU21D;63946;51.986;5.930;2023-12-20T07:43:04;8.03;77.50
75357;HTU21D;63946;51.986;5.930;2023-12-20T07:45:34;8.03;77.50
75357;HTU21D;63946;51.986;5.930;2023-12-20T07:48:09;8.02;77.51
75357;HTU21D;63946;51.986;5.930;2023-12-20T07:50:45;8.04;77.46
75357;HTU21D;63946;51.986;5.930;2023-12-20T07:53:19;8.04;77.42
75357;HTU21D;63946;51.986;5.930;2023-12-20T07:55:56;8.06;77.43
75357;HTU21D;63946;51.986;5.930;2023-12-20T07:58:37;8.08;77.41
75357;HTU21D;63946;51.986;5.930;2023-12-20T08:01:24;8.11;77.33
75357;HTU21D;63946;51.986;5.930;2023-12-20T08:03:53;8.11;77.39
75357;HTU21D;63946;51.986;5.930;2023-12-20T08:06:26;8.09;77.40
75357;HTU21D;63946;51.986;5.930;2023-12-20T08:09:02;8.13;77.47
75357;HTU21D;63946;51.986;5.930;2023-12-20T08:11:38;8.15;77.44
75357;HTU21D;63946;51.986;5.930;2023-12-20T08:14:10;8.18;77.45
75357;HTU21D;63946;51.986;5.930;2023-12-20T08:16:40;8.21;77.35
75357;HTU21D;63946;51.986;5.930;2023-12-20T08:19:36;8.20;77.31
75357;HTU21D;63946;51.986;5.930;2023-12-20T08:22:35;8.21;77.34
75357;HTU21D;63946;51.986;5.930;2023-12-20T08:25:12;8.22;77.36
75357;HTU21D;63946;51.986;5.930;2023-12-20T08:27:49;8.22;77.24
75357;HTU21D;63946;51.986;5.930;2023-12-20T08:30:23;8.20;77.18
75357;HTU21D;63946;51.986;5.930;2023-12-20T08:36:13;8.20;77.14
75357;HTU21D;63946;51.986;5.930;2023-12-20T08:38:49;8.23;77.17
75357;HTU21D;63946;51.986;5.930;2023-12-20T08:41:26;8.24;77.20
75357;HTU21D;63946;51.986;5.930;2023-12-20T08:44:02;8.24;77.24
75357;HTU21D;63946;51.986;5.930;2023-12-20T08:46:47;8.27;77.20
75357;HTU21D;63946;51.986;5.930;2023-12-20T08:49:26;8.28;77.24
75357;HTU21D;63946;51.986;5.930;2023-12-20T08:51:58;8.29;77.18
75357;HTU21D;63946;51.986;5.930;2023-12-20T08:54:46;8.31;77.15
75357;HTU21D;63946;51.986;5.930;2023-12-20T08:57:33;8.34;77.18
75357;HTU21D;63946;51.986;5.930;2023-12-20T09:00:05;8.36;77.11
75357;HTU21D;63946;51.986;5.930;2023-12-20T09:02:34;8.36;77.20
75357;HTU21D;63946;51.986;5.930;2023-12-20T09:05:08;8.37;77.22
75357;HTU21D;63946;51.986;5.930;2023-12-20T09:07:38;8.35;77.29
75357;HTU21D;63946;51.986;5.930;2023-12-20T09:10:09;8.31;77.49
75357;HTU21D;63946;51.986;5.930;2023-12-20T09:12:58;8.34;77.53
75357;HTU21D;63946;51.986;5.930;2023-12-20T09:15:37;8.34;77.56
75357;HTU21D;63946;51.986;5.930;2023-12-20T09:18:28;8.32;77.69
75357;HTU21D;63946;51.986;5.930;2023-12-20T09:21:00;8.33;77.72
75357;HTU21D;63946;51.986;5.930;2023-12-20T09:23:36;8.32;77.85
75357;HTU21D;63946;51.986;5.930;2023-12-20T09:26:05;8.33;77.91
75357;HTU21D;63946;51.986;5.930;2023-12-20T09:28:39;8.32;78.06
75357;HTU21D;63946;51.986;5.930;2023-12-20T09:31:08;8.32;78.04
75357;HTU21D;63946;51.986;5.930;2023-12-20T09:33:49;8.31;78.21
75357;HTU21D;63946;51.986;5.930;2023-12-20T09:36:18;8.33;78.25
75357;HTU21D;63946;51.986;5.930;2023-12-20T09:38:50;8.32;78.37
75357;HTU21D;63946;51.986;5.930;2023-12-20T09:41:20;8.33;78.48
75357;HTU21D;63946;51.986;5.930;2023-12-20T09:43:50;8.32;78.59
75357;HTU21D;63946;51.986;5.930;2023-12-20T09:46:22;8.31;78.63
75357;HTU21D;63946;51.986;5.930;2023-12-20T09:48:56;8.29;78.75
75357;HTU21D;63946;51.986;5.930;2023-12-20T09:51:28;8.29;78.88
75357;HTU21D;63946;51.986;5.930;2023-12-20T09:53:58;8.29;79.00
75357;HTU21D;63946;51.986;5.930;2023-12-20T09:56:30;8.31;79.11
75357;HTU21D;63946;51.986;5.930;2023-12-20T09:59:02;8.32;79.12
75357;HTU21D;63946;51.986;5.930;2023-12-20T10:01:35;8.33;79.16
75357;HTU21D;63946;51.986;5.930;2023-12-20T10:04:09;8.36;79.17
75357;HTU21D;63946;51.986;5.930;2023-12-20T10:06:48;8.38;79.14
75357;HTU21D;63946;51.986;5.930;2023-12-20T10:09:18;8.39;79.08
75357;HTU21D;63946;51.986;5.930;2023-12-20T10:11:47;8.43;79.06
75357;HTU21D;63946;51.986;5.930;2023-12-20T10:14:16;8.42;79.04
75357;HTU21D;63946;51.986;5.930;2023-12-20T10:16:47;8.45;79.01
75357;HTU21D;63946;51.986;5.930;2023-12-20T10:19:17;8.46;78.99
75357;HTU21D;63946;51.986;5.930;2023-12-20T10:21:46;8.48;78.98
75357;HTU21D;63946;51.986;5.930;2023-12-20T10:24:18;8.48;78.96
75357;HTU21D;63946;51.986;5.930;2023-12-20T10:27:08;8.51;78.86
75357;HTU21D;63946;51.986;5.930;2023-12-20T10:30:12;8.57;78.87
75357;HTU21D;63946;51.986;5.930;2023-12-20T10:32:54;8.61;78.79
75357;HTU21D;63946;51.986;5.930;2023-12-20T10:35:29;8.62;78.76
75357;HTU21D;63946;51.986;5.930;2023-12-20T10:38:12;8.65;78.79
75357;HTU21D;63946;51.986;5.930;2023-12-20T10:41:14;8.70;78.69
75357;HTU21D;63946;51.986;5.930;2023-12-20T10:44:11;8.72;78.68
75357;HTU21D;63946;51.986;5.930;2023-12-20T10:46:46;8.68;78.64
75357;HTU21D;63946;51.986;5.930;2023-12-20T10:49:20;8.68;78.69
75357;HTU21D;63946;51.986;5.930;2023-12-20T10:52:01;8.68;78.79
75357;HTU21D;63946;51.986;5.930;2023-12-20T10:54:44;8.72;78.81
75357;HTU21D;63946;51.986;5.930;2023-12-20T10:57:35;8.73;78.82
75357;HTU21D;63946;51.986;5.930;2023-12-20T11:00:06;8.73;78.80
75357;HTU21D;63946;51.986;5.930;2023-12-20T11:02:40;8.74;78.86
75357;HTU21D;63946;51.986;5.930;2023-12-20T11:08:17;8.77;78.91
75357;HTU21D;63946;51.986;5.930;2023-12-20T11:10:59;8.78;78.85
75357;HTU21D;63946;51.986;5.930;2023-12-20T11:13:32;8.78;78.96
75357;HTU21D;63946;51.986;5.930;2023-12-20T11:16:03;8.80;78.95
75357;HTU21D;63946;51.986;5.930;2023-12-20T11:18:33;8.79;79.01
75357;HTU21D;63946;51.986;5.930;2023-12-20T11:21:04;8.80;78.94
75357;HTU21D;63946;51.986;5.930;2023-12-20T11:23:40;8.81;78.88
75357;HTU21D;63946;51.986;5.930;2023-12-20T11:26:23;8.79;78.86
75357;HTU21D;63946;51.986;5.930;2023-12-20T11:32:28;8.76;78.97
75357;HTU21D;63946;51.986;5.930;2023-12-20T11:37:40;8.83;78.89
75357;HTU21D;63946;51.986;5.930;2023-12-20T11:40:23;8.90;78.89
75357;HTU21D;63946;51.986;5.930;2023-12-20T11:43:51;8.92;78.80
75357;HTU21D;63946;51.986;5.930;2023-12-20T11:46:22;8.92;78.82
75357;HTU21D;63946;51.986;5.930;2023-12-20T11:49:01;8.93;78.89
75357;HTU21D;63946;51.986;5.930;2023-12-20T11:52:02;8.96;78.90
75357;HTU21D;63946;51.986;5.930;2023-12-20T11:54:34;9.00;78.92
75357;HTU21D;63946;51.986;5.930;2023-12-20T11:57:03;9.05;78.87
75357;HTU21D;63946;51.986;5.930;2023-12-20T11:59:33;9.04;78.78
75357;HTU21D;63946;51.986;5.930;2023-12-20T12:02:03;9.06;78.83
75357;HTU21D;63946;51.986;5.930;2023-12-20T12:04:32;9.09;78.80
75357;HTU21D;63946;51.986;5.930;2023-12-20T12:07:01;9.10;78.72
75357;HTU21D;63946;51.986;5.930;2023-12-20T12:09:30;9.11;78.60
75357;HTU21D;63946;51.986;5.930;2023-12-20T12:12:02;9.14;78.50
75357;HTU21D;63946;51.986;5.930;2023-12-20T12:14:42;9.17;78.39
75357;HTU21D;63946;51.986;5.930;2023-12-20T12:17:20;9.20;78.25
75357;HTU21D;63946;51.986;5.930;2023-12-20T12:19:49;9.23;78.05
75357;HTU21D;63946;51.986;5.930;2023-12-20T12:22:38;9.24;77.86
75357;HTU21D;63946;51.986;5.930;2023-12-20T12:25:18;9.27;77.85
75357;HTU21D;63946;51.986;5.930;2023-12-20T12:27:50;9.30;77.53
75357;HTU21D;63946;51.986;5.930;2023-12-20T12:30:22;9.37;77.31
75357;HTU21D;63946;51.986;5.930;2023-12-20T12:32:56;9.40;77.03
75357;HTU21D;63946;51.986;5.930;2023-12-20T12:35:35;9.42;76.77
75357;HTU21D;63946;51.986;5.930;2023-12-20T12:38:20;9.45;76.53
75357;HTU21D;63946;51.986;5.930;2023-12-20T12:40:49;9.48;76.41
75357;HTU21D;63946;51.986;5.930;2023-12-20T12:43:29;9.51;76.31
75357;HTU21D;63946;51.986;5.930;2023-12-20T12:46:01;9.54;76.28
75357;HTU21D;63946;51.986;5.930;2023-12-20T12:48:33;9.55;76.25
75357;HTU21D;63946;51.986;5.930;2023-12-20T12:51:16;9.53;76.19
75357;HTU21D;63946;51.986;5.930;2023-12-20T12:53:53;9.51;76.41
75357;HTU21D;63946;51.986;5.930;2023-12-20T12:56:29;9.47;76.44
75357;HTU21D;63946;51.986;5.930;2023-12-20T12:58:58;9.46;76.63
75357;HTU21D;63946;51.986;5.930;2023-12-20T13:01:32;9.41;76.74
75357;HTU21D;63946;51.986;5.930;2023-12-20T13:04:05;9.40;76.89
75357;HTU21D;63946;51.986;5.930;2023-12-20T13:06:37;9.42;76.96
75357;HTU21D;63946;51.986;5.930;2023-12-20T13:09:07;9.50;76.86
75357;HTU21D;63946;51.986;5.930;2023-12-20T13:11:36;9.51;76.76
75357;HTU21D;63946;51.986;5.930;2023-12-20T13:14:05;9.59;76.61
75357;HTU21D;63946;51.986;5.930;2023-12-20T13:16:51;9.63;76.51
75357;HTU21D;63946;51.986;5.930;2023-12-20T13:19:22;9.66;76.44
75357;HTU21D;63946;51.986;5.930;2023-12-20T13:21:54;9.67;76.38
75357;HTU21D;63946;51.986;5.930;2023-12-20T13:24:24;9.69;76.38
75357;HTU21D;63946;51.986;5.930;2023-12-20T13:26:58;9.67;76.39
75357;HTU21D;63946;51.986;5.930;2023-12-20T13:29:29;9.66;76.44
75357;HTU21D;63946;51.986;5.930;2023-12-20T13:31:58;9.65;76.43
75357;HTU21D;63946;51.986;5.930;2023-12-20T13:34:39;9.64;76.42
75357;HTU21D;63946;51.986;5.930;2023-12-20T13:37:08;9.64;76.53
75357;HTU21D;63946;51.986;5.930;2023-12-20T13:39:39;9.65;76.51
75357;HTU21D;63946;51.986;5.930;2023-12-20T13:42:11;9.65;76.57
75357;HTU21D;63946;51.986;5.930;2023-12-20T13:44:40;9.63;76.53
75357;HTU21D;63946;51.986;5.930;2023-12-20T13:47:15;9.63;76.58
75357;HTU21D;63946;51.986;5.930;2023-12-20T13:49:46;9.60;76.58
75357;HTU21D;63946;51.986;5.930;2023-12-20T13:52:15;9.59;76.61
75357;HTU21D;63946;51.986;5.930;2023-12-20T13:54:44;9.60;76.68
75357;HTU21D;63946;51.986;5.930;2023-12-20T13:57:13;9.59;76.65
75357;HTU21D;63946;51.986;5.930;2023-12-20T13:59:45;9.59;76.63
75357;HTU21D;63946;51.986;5.930;2023-12-20T14:02:16;9.57;76.53
75357;HTU21D;63946;51.986;5.930;2023-12-20T14:04:57;9.59;76.30
75357;HTU21D;63946;51.986;5.930;2023-12-20T14:07:29;9.61;76.33
75357;HTU21D;63946;51.986;5.930;2023-12-20T14:09:58;9.61;76.37
75357;HTU21D;63946;51.986;5.930;2023-12-20T14:12:29;9.62;76.27
75357;HTU21D;63946;51.986;5.930;2023-12-20T14:15:02;9.64;76.21
75357;HTU21D;63946;51.986;5.930;2023-12-20T14:17:51;9.63;76.15
75357;HTU21D;63946;51.986;5.930;2023-12-20T14:20:29;9.62;76.15
75357;HTU21D;63946;51.986;5.930;2023-12-20T14:23:25;9.60;76.15
75357;HTU21D;63946;51.986;5.930;2023-12-20T14:25:54;9.61;76.15
75357;HTU21D;63946;51.986;5.930;2023-12-20T14:28:24;9.62;76.21
75357;HTU21D;63946;51.986;5.930;2023-12-20T14:30:53;9.62;76.14
75357;HTU21D;63946;51.986;5.930;2023-12-20T14:33:40;9.63;75.81
75357;HTU21D;63946;51.986;5.930;2023-12-20T14:36:12;9.61;75.89
75357;HTU21D;63946;51.986;5.930;2023-12-20T14:39:09;9.61;75.76
75357;HTU21D;63946;51.986;5.930;2023-12-20T14:41:46;9.59;75.70
75357;HTU21D;63946;51.986;5.930;2023-12-20T14:44:23;9.61;75.55
75357;HTU21D;63946;51.986;5.930;2023-12-20T14:46:54;9.61;75.52
75357;HTU21D;63946;51.986;5.930;2023-12-20T14:49:23;9.61;75.49
75357;HTU21D;63946;51.986;5.930;2023-12-20T14:51:55;9.63;75.45
75357;HTU21D;63946;51.986;5.930;2023-12-20T14:54:24;9.65;75.42
75357;HTU21D;63946;51.986;5.930;2023-12-20T14:56:53;9.65;75.38
75357;HTU21D;63946;51.986;5.930;2023-12-20T14:59:24;9.64;75.40
75357;HTU21D;63946;51.986;5.930;2023-12-20T15:01:53;9.66;75.42
75357;HTU21D;63946;51.986;5.930;2023-12-20T15:04:22;9.65;75.43
75357;HTU21D;63946;51.986;5.930;2023-12-20T15:06:54;9.65;75.50
75357;HTU21D;63946;51.986;5.930;2023-12-20T15:09:24;9.62;75.53
75357;HTU21D;63946;51.986;5.930;2023-12-20T15:12:10;9.60;75.60
75357;HTU21D;63946;51.986;5.930;2023-12-20T15:14:42;9.59;75.65
75357;HTU21D;63946;51.986;5.930;2023-12-20T15:17:14;9.57;75.64
75357;HTU21D;63946;51.986;5.930;2023-12-20T15:19:51;9.54;75.76
75357;HTU21D;63946;51.986;5.930;2023-12-20T15:22:26;9.54;75.79
75357;HTU21D;63946;51.986;5.930;2023-12-20T15:25:05;9.55;75.80
75357;HTU21D;63946;51.986;5.930;2023-12-20T15:27:35;9.54;75.80
75357;HTU21D;63946;51.986;5.930;2023-12-20T15:30:06;9.55;75.85
75357;HTU21D;63946;51.986;5.930;2023-12-20T15:32:35;9.55;75.84
75357;HTU21D;63946;51.986;5.930;2023-12-20T15:35:05;9.53;75.92
75357;HTU21D;63946;51.986;5.930;2023-12-20T15:37:35;9.52;75.93
75357;HTU21D;63946;51.986;5.930;2023-12-20T15:40:08;9.51;76.00
75357;HTU21D;63946;51.986;5.930;2023-12-20T15:42:41;9.47;76.08
75357;HTU21D;63946;51.986;5.930;2023-12-20T15:45:10;9.46;76.21
75357;HTU21D;63946;51.986;5.930;2023-12-20T15:47:39;9.46;76.33
75357;HTU21D;63946;51.986;5.930;2023-12-20T15:50:30;9.45;76.47
75357;HTU21D;63946;51.986;5.930;2023-12-20T15:52:59;9.42;76.59
75357;HTU21D;63946;51.986;5.930;2023-12-20T15:55:29;9.41;76.69
75357;HTU21D;63946;51.986;5.930;2023-12-20T15:57:58;9.39;76.76
75357;HTU21D;63946;51.986;5.930;2023-12-20T16:00:49;9.35;76.97
75357;HTU21D;63946;51.986;5.930;2023-12-20T16:03:21;9.34;77.11
75357;HTU21D;63946;51.986;5.930;2023-12-20T16:05:52;9.33;77.18
75357;HTU21D;63946;51.986;5.930;2023-12-20T16:08:22;9.30;77.41
75357;HTU21D;63946;51.986;5.930;2023-12-20T16:10:51;9.26;77.55
75357;HTU21D;63946;51.986;5.930;2023-12-20T16:13:20;9.23;77.70
75357;HTU21D;63946;51.986;5.930;2023-12-20T16:15:48;9.24;77.88
75357;HTU21D;63946;51.986;5.930;2023-12-20T16:18:23;9.24;77.89
75357;HTU21D;63946;51.986;5.930;2023-12-20T16:21:12;9.23;77.98
75357;HTU21D;63946;51.986;5.930;2023-12-20T16:23:41;9.21;78.07
75357;HTU21D;63946;51.986;5.930;2023-12-20T16:26:12;9.24;78.15